Time;durP1;ratioP1;P1;durP2;ratioP2;P2;SDS_P1;SDS_P2;PMS_P1;PMS_P2;Temp;Humidity;BMP_temperature;BMP_pressure;BME280_temperature;BME280_humidity;BME280_pressure;Samples;Min_cycle;Max_cycle;Signal;HPM_P1;HPM_P2
2022/01/01 00:02:22;;;;;;;29.80;11.85;;;;;;;12.36;91.25;102157.63;4933003;29;20073;-70
2022/01/01 00:04:47;;;;;;;30.63;13.07;;;;;;;12.36;91.34;102148.66;4952331;29;20091;-69
2022/01/01 00:07:14;;;;;;;30.80;13.65;;;;;;;12.36;91.13;102163.06;4949116;29;20035;-68
2022/01/01 00:09:40;;;;;;;30.00;12.73;;;;;;;12.37;91.15;102170.19;4951901;29;20478;-69
2022/01/01 00:12:07;;;;;;;30.88;12.52;;;;;;;12.33;91.11;102166.19;4944072;29;20032;-67
2022/01/01 00:14:32;;;;;;;30.27;13.13;;;;;;;12.37;91.03;102172.88;4945316;29;20058;-68
2022/01/01 00:16:57;;;;;;;33.63;14.38;;;;;;;12.40;90.97;102171.66;4953976;29;20114;-66
2022/01/01 00:19:23;;;;;;;29.05;14.35;;;;;;;12.39;91.14;102169.97;4938056;29;20039;-66
2022/01/01 00:21:48;;;;;;;33.67;14.40;;;;;;;12.38;90.94;102171.84;4923506;29;20043;-69
2022/01/01 00:24:14;;;;;;;35.55;13.73;;;;;;;12.38;90.80;102169.13;4936364;29;20498;-67
2022/01/01 00:26:39;;;;;;;35.60;13.30;;;;;;;12.41;90.64;102173.34;4936233;29;20427;-67
2022/01/01 00:29:05;;;;;;;37.03;13.82;;;;;;;12.35;91.14;102177.69;4954352;29;20165;-67
2022/01/01 00:31:30;;;;;;;38.85;16.05;;;;;;;12.35;91.27;102174.13;4955208;29;20479;-68
2022/01/01 00:33:57;;;;;;;32.25;15.90;;;;;;;12.36;90.89;102170.38;4954589;29;20147;-68
2022/01/01 00:36:23;;;;;;;38.60;19.13;;;;;;;12.35;91.15;102182.28;4954216;28;20049;-68
2022/01/01 00:38:48;;;;;;;38.45;16.70;;;;;;;12.36;91.03;102178.53;4955587;29;20031;-69
2022/01/01 00:41:13;;;;;;;34.00;15.40;;;;;;;12.34;91.07;102178.72;4955469;29;20577;-70
2022/01/01 00:43:38;;;;;;;38.95;15.75;;;;;;;12.33;90.99;102181.66;4955788;29;20034;-69
2022/01/01 00:46:04;;;;;;;33.83;16.48;;;;;;;12.30;91.50;102171.19;4955403;29;20057;-69
2022/01/01 00:48:29;;;;;;;33.25;12.95;;;;;;;12.29;91.07;102162.22;4942463;29;20039;-68
2022/01/01 00:50:56;;;;;;;27.02;11.82;;;;;;;12.29;91.43;102158.66;4937682;29;20038;-69
2022/01/01 00:53:21;;;;;;;27.88;12.15;;;;;;;12.28;91.42;102157.00;4936216;29;20087;-69
2022/01/01 00:55:47;;;;;;;33.05;11.68;;;;;;;12.31;91.08;102164.75;4936271;29;20032;-69
2022/01/01 00:58:12;;;;;;;31.83;11.25;;;;;;;12.30;91.43;102171.19;4935810;29;20369;-70
2022/01/01 01:00:38;;;;;;;34.05;10.75;;;;;;;12.26;91.63;102173.50;4933862;29;20032;-68
2022/01/01 01:03:11;;;;;;;31.85;10.68;;;;;;;12.26;91.34;102173.50;4956304;29;20178;-69
2022/01/01 01:05:40;;;;;;;32.92;10.73;;;;;;;12.23;91.55;102172.00;4943825;29;20082;-69
2022/01/01 01:08:07;;;;;;;32.30;11.10;;;;;;;12.23;91.52;102169.31;4936692;29;20039;-68
2022/01/01 01:10:33;;;;;;;30.00;12.02;;;;;;;12.23;91.29;102174.72;4936110;29;20032;-69
2022/01/01 01:12:58;;;;;;;30.02;11.38;;;;;;;12.26;91.42;102180.78;4944514;29;20043;-69
2022/01/01 01:15:26;;;;;;;33.30;11.75;;;;;;;12.25;91.52;102177.25;4954703;29;20031;-68
2022/01/01 01:17:52;;;;;;;32.28;12.77;;;;;;;12.21;91.54;102168.69;4954570;29;20086;-68
2022/01/01 01:20:20;;;;;;;29.35;11.95;;;;;;;12.22;91.50;102172.22;4954154;29;20039;-68
2022/01/01 01:22:46;;;;;;;32.42;11.25;;;;;;;12.26;91.65;102167.22;4954519;29;20430;-69
2022/01/01 01:25:12;;;;;;;31.30;11.52;;;;;;;12.27;91.70;102166.19;4937316;29;20035;-70
2022/01/01 01:27:37;;;;;;;34.42;12.57;;;;;;;12.25;91.45;102173.69;4954048;29;21582;-69
2022/01/01 01:30:09;;;;;;;33.92;12.52;;;;;;;12.26;91.59;102176.22;4954435;29;20105;-69
2022/01/01 01:32:37;;;;;;;;;;;;;;;12.37;91.49;102177.50;4955006;29;20038;-71
2022/01/01 01:35:04;;;;;;;29.90;11.10;;;;;;;12.29;91.80;102174.94;4944919;29;19965;-69
2022/01/01 01:37:30;;;;;;;28.65;10.80;;;;;;;12.28;91.62;102178.72;4936120;29;20135;-70
2022/01/01 01:39:56;;;;;;;31.10;10.70;;;;;;;12.27;91.48;102174.31;4935416;29;20111;-69
2022/01/01 01:42:23;;;;;;;28.30;11.40;;;;;;;12.26;92.25;102180.78;4935178;29;20101;-70
2022/01/01 01:44:51;;;;;;;30.95;11.07;;;;;;;12.25;92.11;102190.81;4918419;29;20439;-71
2022/01/01 01:47:36;;;;;;;27.17;10.55;;;;;;;12.28;92.23;102195.00;4935206;29;21616;-71
2022/01/01 01:50:06;;;;;;;29.90;10.38;;;;;;;12.25;92.30;102201.66;4935393;29;20028;-69
2022/01/01 01:52:34;;;;;;;30.42;10.68;;;;;;;12.23;92.12;102201.88;4935005;29;20387;-69
2022/01/01 01:55:14;;;;;;;26.00;10.75;;;;;;;12.23;92.63;102193.72;4934946;29;20467;-69
2022/01/01 01:57:41;;;;;;;33.88;10.27;;;;;;;12.25;92.72;102204.38;4935560;29;20039;-70
2022/01/01 02:00:39;;;;;;;29.40;10.35;;;;;;;12.20;92.59;102199.56;4935078;29;20126;-70
2022/01/01 02:03:03;;;;;;;30.98;11.20;;;;;;;12.24;92.56;102205.41;4933319;29;20051;-69
2022/01/01 02:05:33;;;;;;;32.10;11.10;;;;;;;12.24;92.65;102197.28;4934936;29;20137;-69
2022/01/01 02:07:59;;;;;;;25.20;10.70;;;;;;;12.22;92.61;102199.34;4935385;29;20099;-70
2022/01/01 02:10:24;;;;;;;27.02;11.07;;;;;;;12.27;92.53;102201.47;4934979;29;20040;-70
2022/01/01 02:12:51;;;;;;;26.10;10.68;;;;;;;12.24;92.41;102197.28;4942822;29;20467;-70
2022/01/01 02:15:42;;;;;;;25.83;12.13;;;;;;;12.26;92.52;102202.50;4953962;29;20058;-69
2022/01/01 02:18:08;;;;;;;28.88;10.93;;;;;;;12.19;92.53;102189.75;4954060;29;20038;-68
2022/01/01 02:20:33;;;;;;;30.55;11.70;;;;;;;12.22;92.55;102200.19;4954193;29;20028;-70
2022/01/01 02:23:01;;;;;;;27.10;10.93;;;;;;;12.22;92.50;102183.91;4953355;29;20043;-70
2022/01/01 02:25:27;;;;;;;27.55;11.05;;;;;;;12.25;92.33;102195.41;4953925;29;20039;-69
2022/01/01 02:27:53;;;;;;;27.85;11.25;;;;;;;12.23;92.34;102188.31;4942761;29;20099;-69
2022/01/01 02:30:19;;;;;;;28.90;10.43;;;;;;;12.23;92.32;102185.59;4935956;29;20039;-69
2022/01/01 02:32:44;;;;;;;25.40;10.95;;;;;;;12.26;92.25;102188.91;4934951;29;20034;-69
2022/01/01 02:35:12;;;;;;;26.25;11.55;;;;;;;12.26;92.44;102186.22;4935446;29;20067;-71
2022/01/01 02:37:39;;;;;;;25.92;11.48;;;;;;;12.22;92.70;102189.34;4934793;29;20380;-71
2022/01/01 02:40:10;;;;;;;25.15;11.40;;;;;;;12.26;92.36;102183.50;4935021;29;20051;-70
2022/01/01 02:42:39;;;;;;;25.80;12.02;;;;;;;12.27;92.16;102191.44;4935129;29;20032;-68
2022/01/01 02:45:11;;;;;;;27.45;12.40;;;;;;;12.28;91.93;102200.44;4948846;29;20043;-70
2022/01/01 02:47:37;;;;;;;26.35;11.40;;;;;;;12.28;91.94;102193.13;4953718;29;20030;-70
2022/01/01 02:50:04;;;;;;;25.30;11.88;;;;;;;12.27;92.03;102188.72;4945706;29;20395;-70
2022/01/01 02:52:29;;;;;;;26.38;11.95;;;;;;;12.28;91.64;102174.13;4934504;29;20032;-69
2022/01/01 02:54:55;;;;;;;28.83;12.93;;;;;;;12.27;91.95;102175.16;4944851;29;20042;-69
2022/01/01 02:57:20;;;;;;;32.08;12.48;;;;;;;12.28;91.62;102171.41;4953671;29;20035;-70
2022/01/01 02:59:45;;;;;;;26.88;12.30;;;;;;;12.27;91.86;102167.00;4954039;28;20035;-70
2022/01/01 03:02:10;;;;;;;26.38;12.18;;;;;;;12.26;91.43;102162.63;4953655;29;20057;-68
2022/01/01 03:04:36;;;;;;;26.55;11.95;;;;;;;12.30;91.49;102160.34;4949896;29;20364;-69
2022/01/01 03:07:01;;;;;;;31.65;13.02;;;;;;;12.29;91.50;102161.38;4938213;29;20035;-68
2022/01/01 03:09:34;;;;;;;27.55;13.15;;;;;;;12.28;91.44;102165.16;4937792;29;20035;-70
2022/01/01 03:12:01;;;;;;;25.63;12.60;;;;;;;12.28;91.57;102173.28;4937706;29;20468;-69
2022/01/01 03:14:26;;;;;;;23.38;12.07;;;;;;;12.28;91.53;102165.16;4937250;29;20379;-69
2022/01/01 03:16:51;;;;;;;26.33;11.98;;;;;;;12.30;91.43;102171.19;4937484;29;20110;-70
2022/01/01 03:19:17;;;;;;;25.75;12.27;;;;;;;12.30;91.04;102168.47;4938833;29;20086;-69
2022/01/01 03:21:42;;;;;;;29.80;12.88;;;;;;;12.29;91.31;102169.50;4937642;29;20031;-68
2022/01/01 03:24:08;;;;;;;24.83;12.35;;;;;;;12.31;91.31;102162.03;4937723;29;20036;-68
2022/01/01 03:26:33;;;;;;;29.73;12.35;;;;;;;12.28;91.21;102167.88;4937640;29;20039;-68
2022/01/01 03:28:58;;;;;;;24.90;11.38;;;;;;;12.29;91.38;102161.38;4937380;29;20038;-67
2022/01/01 03:31:25;;;;;;;26.65;11.20;;;;;;;12.30;91.44;102152.19;4937432;29;20427;-67
2022/01/01 03:33:51;;;;;;;29.33;12.02;;;;;;;12.30;91.24;102158.44;4937835;29;20031;-68
2022/01/01 03:36:16;;;;;;;28.00;11.45;;;;;;;12.30;91.24;102158.44;4936598;29;20079;-67
2022/01/01 03:38:42;;;;;;;29.38;10.55;;;;;;;12.28;91.01;102157.84;4937462;29;20078;-67
2022/01/01 03:41:07;;;;;;;22.65;10.13;;;;;;;12.29;90.89;102153.22;4937446;29;20118;-68
2022/01/01 03:43:32;;;;;;;20.35;10.10;;;;;;;12.31;90.87;102164.75;4937390;29;20110;-68
2022/01/01 03:45:58;;;;;;;25.00;10.10;;;;;;;12.30;90.68;102152.19;4938392;29;20043;-68
2022/01/01 03:48:23;;;;;;;25.52;10.02;;;;;;;12.30;90.69;102146.78;4937364;29;20504;-68
2022/01/01 03:50:48;;;;;;;22.30;9.63;;;;;;;12.27;90.40;102139.03;4937272;29;20028;-68
2022/01/01 03:53:14;;;;;;;22.58;9.10;;;;;;;12.30;90.52;102146.78;4937008;29;20046;-67
2022/01/01 03:55:39;;;;;;;22.88;9.82;;;;;;;12.29;90.67;102142.38;4937076;29;20031;-68
2022/01/01 03:58:04;;;;;;;20.67;9.27;;;;;;;12.30;90.35;102150.31;4937142;29;20058;-67
2022/01/01 04:00:30;;;;;;;21.30;8.57;;;;;;;12.32;89.94;102144.69;4917989;29;20036;-67
2022/01/01 04:03:04;;;;;;;20.73;8.73;;;;;;;12.33;90.23;102149.91;4935549;29;20055;-68
2022/01/01 04:05:30;;;;;;;20.25;8.55;;;;;;;12.28;89.84;102143.44;4937085;29;20091;-67
2022/01/01 04:07:55;;;;;;;20.10;8.27;;;;;;;12.31;89.90;102146.56;4937072;29;20032;-67
2022/01/01 04:10:20;;;;;;;19.35;8.35;;;;;;;12.35;89.51;102152.41;4937691;29;20036;-67
2022/01/01 04:12:45;;;;;;;20.70;7.78;;;;;;;12.32;89.50;102152.81;4936552;29;20510;-67
2022/01/01 04:15:11;;;;;;;21.27;8.73;;;;;;;12.31;89.64;102141.13;4936741;29;20035;-67
2022/01/01 04:17:38;;;;;;;20.38;7.85;;;;;;;12.32;89.43;102147.38;4936906;29;20032;-68
2022/01/01 04:20:04;;;;;;;22.80;7.55;;;;;;;12.35;88.77;102144.25;4936911;29;20054;-67
2022/01/01 04:22:29;;;;;;;18.83;7.63;;;;;;;12.35;88.89;102141.56;4955659;29;20023;-67
2022/01/01 04:24:55;;;;;;;14.25;7.05;;;;;;;12.34;88.93;102146.16;4955892;29;20038;-67
2022/01/01 04:27:20;;;;;;;16.55;7.30;;;;;;;12.33;88.59;102139.03;4955467;29;20027;-67
2022/01/01 04:29:45;;;;;;;21.35;7.95;;;;;;;12.34;88.75;102137.19;4955706;29;20031;-68
2022/01/01 04:32:13;;;;;;;18.98;6.88;;;;;;;12.35;88.44;102141.56;4938643;29;20031;-68
2022/01/01 04:34:39;;;;;;;21.15;7.60;;;;;;;12.34;88.62;102143.44;4941702;29;20043;-68
2022/01/01 04:37:11;;;;;;;16.88;7.30;;;;;;;12.34;88.85;102150.75;4954839;29;20190;-67
2022/01/01 04:39:37;;;;;;;17.08;7.28;;;;;;;12.37;88.75;102150.34;4955268;29;20027;-68
2022/01/01 04:42:02;;;;;;;19.88;6.75;;;;;;;12.39;88.32;102154.53;4938272;29;20081;-68
2022/01/01 04:44:28;;;;;;;19.00;7.22;;;;;;;12.36;88.36;102156.81;4943889;29;20379;-68
2022/01/01 04:46:53;;;;;;;18.30;7.30;;;;;;;12.35;88.30;102163.25;4936225;29;20032;-68
2022/01/01 04:49:18;;;;;;;22.85;7.70;;;;;;;12.35;88.63;102157.84;4935973;29;20100;-67
2022/01/01 04:51:43;;;;;;;19.40;7.40;;;;;;;12.38;88.21;102157.47;4936217;29;20035;-68
2022/01/01 04:54:16;;;;;;;19.63;7.50;;;;;;;12.39;88.05;102167.25;4937077;29;20502;-68
2022/01/01 04:56:44;;;;;;;15.40;6.60;;;;;;;12.38;88.08;102169.13;4936039;29;20176;-68
2022/01/01 04:59:11;;;;;;;19.90;8.02;;;;;;;12.38;88.18;102165.59;4935723;29;20035;-67
2022/01/01 05:01:36;;;;;;;20.80;7.53;;;;;;;12.39;87.94;102168.09;4941276;29;20063;-67
2022/01/01 05:04:02;;;;;;;15.40;7.10;;;;;;;12.39;87.71;102159.09;4954788;29;20039;-68
2022/01/01 05:06:27;;;;;;;18.15;7.55;;;;;;;12.40;87.80;102163.50;4954560;29;20062;-67
2022/01/01 05:08:52;;;;;;;18.30;7.00;;;;;;;12.36;88.01;102179.34;4954860;29;20030;-68
2022/01/01 05:11:17;;;;;;;19.05;7.25;;;;;;;12.35;87.71;102168.69;4954754;29;20031;-68
2022/01/01 05:13:43;;;;;;;16.50;6.97;;;;;;;12.36;88.14;102170.38;4955059;29;20467;-68
2022/01/01 05:16:13;;;;;;;15.73;7.05;;;;;;;12.36;87.76;102168.50;4954656;29;20041;-67
2022/01/01 05:18:39;;;;;;;20.65;7.68;;;;;;;12.35;88.14;102168.69;4954698;29;20035;-68
2022/01/01 05:21:04;;;;;;;19.95;7.60;;;;;;;12.36;87.78;102181.22;4954539;29;20042;-67
2022/01/01 05:23:29;;;;;;;17.27;7.55;;;;;;;12.34;88.13;102186.88;4947670;28;20463;-68
2022/01/01 05:25:54;;;;;;;17.58;7.05;;;;;;;12.40;87.23;102187.94;4936910;29;20027;-67
2022/01/01 05:28:20;;;;;;;18.92;7.53;;;;;;;12.36;87.52;102182.06;4935636;29;20033;-68
2022/01/01 05:30:45;;;;;;;15.07;6.47;;;;;;;12.34;87.56;102180.63;4935301;29;20051;-67
2022/01/01 05:33:10;;;;;;;16.05;7.00;;;;;;;12.33;87.48;102181.66;4935324;29;20043;-67
2022/01/01 05:35:35;;;;;;;13.95;6.60;;;;;;;12.35;87.42;102185.84;4935199;29;20050;-67
2022/01/01 05:38:01;;;;;;;15.13;7.47;;;;;;;12.33;87.54;102182.47;4942601;29;20054;-67
2022/01/01 05:40:26;;;;;;;22.45;6.97;;;;;;;12.32;87.46;102174.53;4942741;29;20039;-67
2022/01/01 05:42:51;;;;;;;18.80;7.07;;;;;;;12.31;87.29;102175.59;4929572;29;20178;-67
2022/01/01 05:45:16;;;;;;;20.90;6.97;;;;;;;12.31;87.33;102181.84;4935392;29;20047;-67
2022/01/01 05:47:42;;;;;;;15.52;6.70;;;;;;;12.30;87.57;102180.16;4935060;29;20046;-68
2022/01/01 05:50:07;;;;;;;21.17;6.78;;;;;;;12.29;87.40;102181.22;4918212;29;20429;-67
2022/01/01 05:52:33;;;;;;;17.98;7.25;;;;;;;12.27;87.55;102177.03;4940304;29;20475;-67
2022/01/01 05:54:58;;;;;;;16.15;6.78;;;;;;;12.28;87.22;102174.13;4935406;29;20071;-67
2022/01/01 05:57:23;;;;;;;15.32;6.13;;;;;;;12.28;87.11;102173.28;4934867;29;20055;-67
2022/01/01 05:59:49;;;;;;;16.25;6.22;;;;;;;12.23;87.30;102177.44;4935181;29;20467;-67
2022/01/01 06:02:14;;;;;;;17.90;6.40;;;;;;;12.27;87.40;102177.03;4944455;29;20113;-67
2022/01/01 06:04:39;;;;;;;19.67;6.80;;;;;;;12.26;87.29;102169.94;4953008;29;20035;-67
2022/01/01 06:07:05;;;;;;;31.90;6.70;;;;;;;12.25;87.04;102177.25;4948870;29;20051;-67
2022/01/01 06:09:30;;;;;;;18.70;6.18;;;;;;;12.20;87.51;102155.31;4953436;29;20059;-68
2022/01/01 06:11:55;;;;;;;17.40;5.95;;;;;;;12.25;87.14;102162.84;4954055;29;20035;-68
2022/01/01 06:14:21;;;;;;;16.85;6.30;;;;;;;12.22;86.89;102159.47;4947193;29;20083;-67
2022/01/01 06:16:47;;;;;;;16.30;6.35;;;;;;;12.21;86.84;102157.81;4937093;29;20027;-67
2022/01/01 06:19:12;;;;;;;19.67;7.07;;;;;;;12.18;87.11;102163.66;4934851;29;20035;-68
2022/01/01 06:21:37;;;;;;;15.98;6.07;;;;;;;12.16;87.18;102163.00;4946788;29;20118;-67
2022/01/01 06:24:03;;;;;;;17.63;6.38;;;;;;;12.12;87.15;102150.06;4953600;29;20039;-67
2022/01/01 06:26:28;;;;;;;13.93;5.60;;;;;;;12.12;86.95;102160.91;4946695;29;20032;-67
2022/01/01 06:28:53;;;;;;;18.20;6.00;;;;;;;12.07;87.53;102164.22;4917797;29;20063;-67
2022/01/01 06:31:18;;;;;;;17.98;5.82;;;;;;;12.04;87.04;102161.94;4935224;29;20482;-68
2022/01/01 06:33:44;;;;;;;18.60;5.95;;;;;;;12.04;86.77;102164.63;4935011;29;20036;-68
2022/01/01 06:36:12;;;;;;;16.48;5.70;;;;;;;12.04;86.60;102162.75;4938973;29;20062;-67
2022/01/01 06:38:39;;;;;;;16.45;5.63;;;;;;;12.03;86.71;102173.81;4945573;29;20027;-67
2022/01/01 06:41:04;;;;;;;13.30;5.15;;;;;;;11.99;86.84;102164.41;4955657;29;20039;-68
2022/01/01 06:43:29;;;;;;;13.27;5.20;;;;;;;11.96;86.78;102171.06;4956072;29;20375;-67
2022/01/01 06:45:55;;;;;;;15.18;5.25;;;;;;;11.93;86.91;102176.06;4957349;29;20035;-67
2022/01/01 06:48:20;;;;;;;15.80;5.32;;;;;;;11.93;86.62;102170.66;4957271;29;20410;-67
2022/01/01 06:50:45;;;;;;;17.23;5.32;;;;;;;11.91;86.95;102167.25;4956323;29;20063;-67
2022/01/01 06:53:11;;;;;;;15.02;5.38;;;;;;;11.88;87.05;102161.22;4956909;29;20054;-68
2022/01/01 06:55:37;;;;;;;10.82;4.63;;;;;;;11.88;87.01;102166.63;4956741;29;20463;-68
2022/01/01 06:58:02;;;;;;;16.08;5.53;;;;;;;11.85;87.09;102161.59;4957454;29;20027;-68
2022/01/01 07:00:27;;;;;;;12.95;5.43;;;;;;;11.86;86.89;102174.13;4955896;29;20037;-67
2022/01/01 07:02:52;;;;;;;15.32;5.70;;;;;;;11.84;86.82;102178.91;4955450;29;20426;-68
2022/01/01 07:05:18;;;;;;;24.45;5.60;;;;;;;11.85;86.74;102179.75;4957498;29;20027;-67
2022/01/01 07:07:43;;;;;;;16.33;4.95;;;;;;;11.86;86.56;102186.84;4948394;29;20471;-68
2022/01/01 07:10:10;;;;;;;15.48;4.85;;;;;;;11.84;86.85;102189.75;4937958;29;20039;-67
2022/01/01 07:12:38;;;;;;;11.75;4.97;;;;;;;11.87;86.51;102194.78;4937743;29;20032;-67
2022/01/01 07:15:05;;;;;;;14.77;4.97;;;;;;;11.86;86.50;102198.53;4937881;29;20063;-68
2022/01/01 07:17:30;;;;;;;11.18;4.88;;;;;;;11.88;86.65;102201.03;4937638;29;20028;-68
2022/01/01 07:19:56;;;;;;;14.63;4.85;;;;;;;11.88;86.44;102206.47;4937852;29;20447;-67
2022/01/01 07:22:21;;;;;;;16.67;5.55;;;;;;;11.87;85.97;102204.81;4944663;29;20114;-68
2022/01/01 07:24:47;;;;;;;17.23;5.10;;;;;;;11.86;86.36;102190.38;4956643;29;20031;-67
2022/01/01 07:27:12;;;;;;;18.08;5.50;;;;;;;11.87;86.92;102194.78;4956584;29;20031;-68
2022/01/01 07:29:39;;;;;;;12.27;5.05;;;;;;;11.87;86.59;102200.22;4939372;29;20031;-67
2022/01/01 07:32:04;;;;;;;13.90;5.18;;;;;;;11.89;86.46;102202.72;4955146;29;20027;-68
2022/01/01 07:34:30;;;;;;;26.50;5.60;;;;;;;11.89;86.40;102202.72;4956445;29;20042;-68
2022/01/01 07:36:55;;;;;;;11.48;5.05;;;;;;;11.91;86.20;102207.94;4955912;29;20120;-67
2022/01/01 07:39:21;;;;;;;15.15;4.97;;;;;;;11.94;86.22;102210.28;4956676;29;20027;-67
2022/01/01 07:41:46;;;;;;;10.77;4.75;;;;;;;11.93;86.13;102211.34;4956391;29;20032;-67
2022/01/01 07:44:13;;;;;;;13.77;5.05;;;;;;;11.92;85.94;102213.16;4956905;29;20027;-67
2022/01/01 07:46:38;;;;;;;13.77;5.10;;;;;;;11.91;85.73;102227.75;4955652;28;20035;-68
2022/01/01 07:49:03;;;;;;;12.25;4.93;;;;;;;11.87;86.05;102221.91;4956467;29;20594;-67
2022/01/01 07:51:29;;;;;;;15.20;5.15;;;;;;;11.88;86.34;102223.59;4950804;29;20031;-68
2022/01/01 07:53:54;;;;;;;15.05;4.90;;;;;;;11.88;86.22;102223.59;4948728;29;20421;-67
2022/01/01 07:56:19;;;;;;;13.10;4.55;;;;;;;11.91;85.98;102225.03;4956334;29;20034;-67
2022/01/01 07:58:45;;;;;;;14.80;4.82;;;;;;;11.88;85.80;102223.59;4954202;29;20372;-67
2022/01/01 08:01:10;;;;;;;17.45;4.90;;;;;;;11.88;85.81;102228.16;4952926;29;20134;-68
2022/01/01 08:03:35;;;;;;;14.55;5.25;;;;;;;11.89;85.94;102221.72;4955862;29;20031;-68
2022/01/01 08:06:01;;;;;;;16.65;5.53;;;;;;;11.92;86.16;102218.59;4952956;29;20035;-70
2022/01/01 08:08:26;;;;;;;14.35;4.88;;;;;;;11.93;85.98;102227.63;4936727;29;20035;-70
2022/01/01 08:10:51;;;;;;;15.95;5.78;;;;;;;11.91;85.65;102219.63;4936929;29;20059;-69
2022/01/01 08:13:24;;;;;;;16.10;5.05;;;;;;;11.91;85.37;102221.50;4937071;29;20032;-70
2022/01/01 08:15:53;;;;;;;14.90;4.78;;;;;;;11.89;85.56;102224.41;4936507;29;20515;-70
2022/01/01 08:18:19;;;;;;;10.85;4.88;;;;;;;11.91;85.41;102226.94;4935509;29;20201;-69
2022/01/01 08:20:45;;;;;;;11.70;4.88;;;;;;;11.91;85.70;102233.19;4936992;29;20043;-69
2022/01/01 08:23:10;;;;;;;14.18;4.78;;;;;;;11.87;85.60;102223.78;4937642;29;20069;-70
2022/01/01 08:25:36;;;;;;;15.30;5.15;;;;;;;11.90;85.67;102220.69;4936412;29;20430;-68
2022/01/01 08:28:02;;;;;;;16.30;5.35;;;;;;;11.89;85.62;102230.66;4936312;29;20460;-67
2022/01/01 08:30:28;;;;;;;13.48;4.85;;;;;;;11.90;85.62;102228.81;4936329;29;20067;-67
2022/01/01 08:32:53;;;;;;;16.23;5.28;;;;;;;11.88;85.45;102236.28;4936782;29;20077;-67
2022/01/01 08:35:18;;;;;;;18.70;5.65;;;;;;;11.87;85.42;102224.63;4936138;29;20032;-67
2022/01/01 08:37:44;;;;;;;17.35;5.40;;;;;;;11.91;85.53;102226.94;4954475;29;20075;-68
2022/01/01 08:40:10;;;;;;;16.48;5.35;;;;;;;11.91;85.36;102230.47;4938105;29;20118;-68
2022/01/01 08:42:35;;;;;;;12.95;5.85;;;;;;;11.91;85.61;102230.47;4955300;29;20035;-68
2022/01/01 08:45:00;;;;;;;14.52;5.45;;;;;;;11.89;85.63;102225.25;4955538;29;20099;-68
2022/01/01 08:47:26;;;;;;;18.38;5.72;;;;;;;11.88;85.34;102226.31;4944628;29;20035;-68
2022/01/01 08:49:54;;;;;;;15.32;6.07;;;;;;;11.87;85.47;102227.34;4937033;29;20066;-68
2022/01/01 08:52:21;;;;;;;13.45;5.68;;;;;;;11.86;85.57;102233.78;4936096;29;20374;-68
2022/01/01 08:54:46;;;;;;;14.07;5.70;;;;;;;11.85;85.41;102236.69;4935724;29;20032;-67
2022/01/01 08:57:11;;;;;;;17.73;6.25;;;;;;;11.84;85.63;102238.59;4935520;29;20386;-67
2022/01/01 08:59:37;;;;;;;14.52;5.90;;;;;;;11.84;85.65;102238.59;4918227;29;20032;-67
2022/01/01 09:02:02;;;;;;;13.63;6.03;;;;;;;11.83;85.34;102236.91;4941942;29;20054;-67
2022/01/01 09:04:27;;;;;;;13.00;5.40;;;;;;;11.84;85.56;102226.91;4948346;29;20502;-67
2022/01/01 09:06:53;;;;;;;17.40;6.07;;;;;;;11.83;85.66;102225.22;4935706;29;20031;-66
2022/01/01 09:09:18;;;;;;;19.92;5.90;;;;;;;11.81;85.54;102211.03;4935835;29;20059;-67
2022/01/01 09:11:43;;;;;;;11.82;5.40;;;;;;;11.80;85.79;102221.03;4918560;29;20031;-67
2022/01/01 09:14:09;;;;;;;12.73;5.53;;;;;;;11.80;85.70;102215.59;4935812;29;20031;-67
2022/01/01 09:16:34;;;;;;;16.13;5.93;;;;;;;11.84;85.81;102221.47;4942872;29;20074;-67
2022/01/01 09:19:00;;;;;;;18.08;6.20;;;;;;;11.83;85.66;102217.91;4954612;29;20037;-68
2022/01/01 09:21:27;;;;;;;12.35;5.72;;;;;;;11.84;85.09;102216.06;4954789;29;20138;-67
2022/01/01 09:23:53;;;;;;;15.98;5.63;;;;;;;11.85;85.75;102213.16;4953223;29;20085;-67
2022/01/01 09:26:20;;;;;;;15.30;6.18;;;;;;;11.84;85.68;102216.88;4935700;29;20435;-68
2022/01/01 09:28:45;;;;;;;12.32;5.90;;;;;;;11.86;85.53;102212.09;4941872;29;20099;-69
2022/01/01 09:31:11;;;;;;;15.50;6.18;;;;;;;11.85;85.60;102217.72;4935175;29;20036;-71
2022/01/01 09:33:37;;;;;;;17.98;6.82;;;;;;;11.85;85.54;102207.72;4935045;29;20110;-73
2022/01/01 09:36:06;;;;;;;15.30;6.32;;;;;;;11.81;85.78;102216.47;4936617;29;20122;-73
2022/01/01 09:38:37;;;;;;;14.73;6.80;;;;;;;11.83;85.50;102220.63;4935004;29;20038;-72
2022/01/01 09:41:04;;;;;;;14.73;6.30;;;;;;;11.82;85.38;102210.84;4935270;29;20035;-72
2022/01/01 09:43:31;;;;;;;14.90;6.57;;;;;;;11.81;85.53;102217.28;4935431;29;20078;-71
2022/01/01 09:45:58;;;;;;;14.02;6.00;;;;;;;11.78;85.51;102211.44;4935041;29;20047;-74
2022/01/01 09:48:25;;;;;;;18.42;6.32;;;;;;;11.80;85.73;102210.19;4918518;29;20427;-73
2022/01/01 09:50:56;;;;;;;11.82;6.07;;;;;;;11.77;85.87;102210.56;4935383;29;20032;-71
2022/01/01 09:53:24;;;;;;;13.43;6.15;;;;;;;11.77;85.75;102205.16;4935388;29;20042;-71
2022/01/01 09:55:50;;;;;;;12.20;6.28;;;;;;;11.75;85.41;102190.97;4945730;29;20028;-73
2022/01/01 09:58:16;;;;;;;9.85;5.60;;;;;;;11.74;86.00;102205.56;4954468;29;20036;-74
2022/01/01 10:00:41;;;;;;;15.75;6.65;;;;;;;11.70;86.17;102198.88;4950973;29;20751;-73
2022/01/01 10:03:12;;;;;;;11.60;5.57;;;;;;;11.80;86.33;102193.06;4954103;29;20027;-72
2022/01/01 10:05:58;;;;;;;10.77;5.43;;;;;;;11.82;86.10;102186.44;4922777;29;20028;-76
2022/01/01 10:08:24;;;;;;;11.20;5.63;;;;;;;11.88;86.36;102188.34;4935259;29;20031;-74
2022/01/01 10:10:51;;;;;;;12.10;5.53;;;;;;;11.92;85.64;102185.22;4952958;29;20397;-74
2022/01/01 10:13:17;;;;;;;14.15;5.88;;;;;;;11.91;85.55;102183.53;4939014;29;20106;-75
2022/01/01 10:15:43;;;;;;;13.00;6.32;;;;;;;11.91;85.70;102178.09;4937350;29;20130;-76
2022/01/01 10:18:08;;;;;;;10.75;5.53;;;;;;;11.87;85.75;102161.41;4938689;29;20050;-74
2022/01/01 10:20:36;;;;;;;12.23;6.20;;;;;;;11.86;85.52;102165.16;4950227;29;20399;-72
2022/01/01 10:23:13;;;;;;;11.88;5.65;;;;;;;11.80;85.47;102158.66;4953352;29;20114;-73
2022/01/01 10:28:22;;;;;;;12.38;6.15;;;;;;;11.83;85.86;102155.53;4944150;29;20078;-76
2022/01/01 10:30:48;;;;;;;12.98;6.07;;;;;;;11.85;86.00;102158.03;4938581;29;20059;-73
2022/01/01 10:33:16;;;;;;;12.75;6.07;;;;;;;11.86;85.84;102155.13;4921567;29;20036;-75
2022/01/01 10:35:44;;;;;;;10.57;6.03;;;;;;;11.89;85.73;102152.00;4922603;29;20036;-71
2022/01/01 10:38:16;;;;;;;14.25;5.30;;;;;;;11.95;85.80;102147.69;4938688;29;20489;-72
2022/01/01 10:40:42;;;;;;;11.82;5.80;;;;;;;11.94;85.70;102140.63;4942500;29;20185;-71
2022/01/01 10:43:07;;;;;;;12.95;5.60;;;;;;;11.99;85.63;102148.13;4949338;29;20111;-70
2022/01/01 10:45:33;;;;;;;12.88;6.05;;;;;;;12.03;85.63;102146.69;4953893;29;20130;-71
2022/01/01 10:48:25;;;;;;;13.27;5.97;;;;;;;12.09;85.96;102147.75;4955696;29;20106;-70
2022/01/01 10:50:53;;;;;;;11.18;5.47;;;;;;;12.11;85.85;102132.94;4942122;29;20279;-70
2022/01/01 10:53:24;;;;;;;13.18;5.57;;;;;;;12.17;85.30;102137.56;4953438;29;20031;-71
2022/01/01 10:55:55;;;;;;;13.43;5.40;;;;;;;12.19;85.54;102135.47;4957130;29;20118;-70
2022/01/01 10:58:28;;;;;;;11.40;5.60;;;;;;;12.26;85.61;102121.06;4939696;29;20027;-72
2022/01/01 11:01:05;;;;;;;10.20;5.65;;;;;;;12.26;85.05;102102.94;4953848;29;20082;-71
2022/01/01 11:03:42;;;;;;;9.00;4.97;;;;;;;12.23;85.07;102117.75;4957448;29;20035;-73
2022/01/01 11:06:12;;;;;;;12.32;5.07;;;;;;;12.25;84.92;102122.13;4956067;29;20416;-73
2022/01/01 11:08:40;;;;;;;13.60;4.97;;;;;;;12.26;85.16;102112.94;4952975;29;20035;-75
2022/01/01 11:11:06;;;;;;;12.25;4.97;;;;;;;12.25;84.79;102116.72;4953927;29;20027;-70
2022/01/01 11:13:32;;;;;;;9.05;4.72;;;;;;;12.26;84.46;102116.50;4950788;29;20034;-72
2022/01/01 11:15:58;;;;;;;10.25;4.53;;;;;;;12.27;84.52;102123.56;4956781;29;20031;-71